Time;durP1;ratioP1;P1;durP2;ratioP2;P2;SDS_P1;SDS_P2;PMS_P1;PMS_P2;Temp;Humidity;BMP_temperature;BMP_pressure;BME280_temperature;BME280_humidity;BME280_pressure;Samples;Min_cycle;Max_cycle;Signal;HPM_P1;HPM_P2
2021/11/11 00:01:06;;;;;;;9.07;3.92;;;;;;;0.91;100.00;96579.56;5045356;28;20029;-73
2021/11/11 00:03:33;;;;;;;7.20;3.90;;;;;;;0.89;100.00;96576.31;5044613;28;20070;-73
2021/11/11 00:06:00;;;;;;;6.55;3.20;;;;;;;0.83;100.00;96574.28;5046587;28;20480;-72
2021/11/11 00:08:27;;;;;;;7.15;3.78;;;;;;;0.79;100.00;96570.31;5045615;28;20037;-72
2021/11/11 00:10:54;;;;;;;6.57;3.10;;;;;;;0.79;100.00;96565.19;5046069;28;20098;-72
2021/11/11 00:13:21;;;;;;;6.32;3.03;;;;;;;0.77;100.00;96561.94;5043061;28;20049;-72
2021/11/11 00:15:48;;;;;;;7.45;3.47;;;;;;;0.80;100.00;96571.16;5045632;28;20055;-72
2021/11/11 00:18:16;;;;;;;7.43;3.72;;;;;;;0.78;100.00;96563.59;5045890;28;20044;-72
2021/11/11 00:20:43;;;;;;;10.73;3.47;;;;;;;0.74;100.00;96551.97;5045654;28;20650;-72
2021/11/11 00:23:11;;;;;;;6.75;3.15;;;;;;;0.72;100.00;96548.69;5044677;28;20053;-72
2021/11/11 00:25:38;;;;;;;5.35;3.42;;;;;;;0.83;99.81;96556.31;5044031;28;20047;-72
2021/11/11 00:28:05;;;;;;;10.52;2.95;;;;;;;0.83;99.22;96551.19;5046050;28;20041;-73
2021/11/11 00:30:33;;;;;;;6.90;3.40;;;;;;;0.84;99.73;96563.06;5027822;28;20044;-72
2021/11/11 00:33:02;;;;;;;8.10;3.58;;;;;;;0.84;99.63;96557.13;5044562;28;20045;-73
2021/11/11 00:35:30;;;;;;;13.80;5.30;;;;;;;0.74;99.63;96546.84;5044691;28;20048;-73
2021/11/11 00:37:59;;;;;;;6.95;3.78;;;;;;;0.73;99.33;96555.47;5026489;28;20044;-73
2021/11/11 00:40:29;;;;;;;8.85;3.88;;;;;;;0.90;99.38;96562.56;5045002;28;20044;-73
2021/11/11 00:42:59;;;;;;;8.95;4.88;;;;;;;0.96;99.12;96556.13;5044973;28;20032;-73
2021/11/11 00:45:26;;;;;;;7.13;4.18;;;;;;;1.09;98.54;96561.81;5044057;28;20037;-72
2021/11/11 00:47:54;;;;;;;6.22;3.45;;;;;;;1.14;98.06;96558.88;5044977;28;20041;-72
2021/11/11 00:50:24;;;;;;;7.45;3.67;;;;;;;1.14;97.72;96564.81;5045721;28;20062;-73
2021/11/11 00:52:51;;;;;;;7.82;3.03;;;;;;;0.98;96.78;96563.69;5027823;28;20072;-73
2021/11/11 00:55:19;;;;;;;8.07;4.45;;;;;;;0.89;97.48;96553.25;5044926;28;20426;-72
2021/11/11 00:58:07;;;;;;;7.45;3.90;;;;;;;0.74;98.21;96557.09;5044527;28;20044;-73
2021/11/11 01:00:36;;;;;;;7.88;4.57;;;;;;;0.83;98.50;96551.19;5010640;28;20048;-73
2021/11/11 01:03:05;;;;;;;9.02;2.90;;;;;;;1.00;97.81;96551.53;5042594;28;20125;-72
2021/11/11 01:05:33;;;;;;;7.15;4.25;;;;;;;1.11;97.01;96548.88;5026749;28;20106;-73
2021/11/11 01:08:01;;;;;;;7.38;4.03;;;;;;;1.04;95.77;96548.56;5045132;28;20052;-73
2021/11/11 01:10:28;;;;;;;5.57;3.80;;;;;;;0.80;96.33;96541.19;5041545;28;20041;-72
2021/11/11 01:12:56;;;;;;;10.43;4.30;;;;;;;0.50;96.99;96529.94;5026998;28;20041;-72
2021/11/11 01:15:26;;;;;;;8.25;4.53;;;;;;;0.46;97.76;96546.53;5045063;28;20051;-72
2021/11/11 01:17:53;;;;;;;10.70;3.60;;;;;;;0.39;98.40;96545.41;5043751;28;20536;-72
2021/11/11 01:20:21;;;;;;;6.93;4.38;;;;;;;0.30;98.28;96530.78;5044921;28;20047;-72
2021/11/11 01:22:49;;;;;;;8.32;3.72;;;;;;;0.42;98.14;96541.78;5026325;28;20041;-72
2021/11/11 01:25:19;;;;;;;7.50;3.95;;;;;;;0.33;97.63;96543.34;5026767;28;20037;-73
2021/11/11 01:27:47;;;;;;;9.50;4.65;;;;;;;0.29;97.57;96526.56;5026912;28;20052;-73
2021/11/11 01:30:20;;;;;;;7.25;4.43;;;;;;;0.22;98.12;96530.56;5026757;28;20053;-73
2021/11/11 01:32:50;;;;;;;11.10;5.10;;;;;;;0.25;97.87;96514.97;5027089;28;20045;-72
2021/11/11 01:35:18;;;;;;;11.48;4.43;;;;;;;0.18;97.81;96512.06;5024999;28;20053;-72
2021/11/11 01:37:45;;;;;;;5.88;3.65;;;;;;;0.18;97.67;96525.72;5025330;28;20126;-72
2021/11/11 01:40:16;;;;;;;9.95;4.55;;;;;;;0.21;97.55;96518.72;5011325;28;20090;-73
2021/11/11 01:42:52;;;;;;;10.02;4.18;;;;;;;0.33;97.02;96527.97;5026344;28;20044;-72
2021/11/11 01:45:24;;;;;;;7.30;4.25;;;;;;;0.29;97.57;96526.56;5025726;28;20045;-72
2021/11/11 01:47:53;;;;;;;6.03;4.35;;;;;;;0.18;98.06;96512.91;5024852;28;20056;-73
2021/11/11 01:50:24;;;;;;;8.10;3.67;;;;;;;0.25;97.97;96520.09;5026458;28;20053;-73
2021/11/11 01:52:51;;;;;;;8.38;4.35;;;;;;;0.25;98.12;96525.22;5044353;28;20099;-73
2021/11/11 01:55:19;;;;;;;8.00;4.22;;;;;;;0.12;98.65;96515.94;5026241;28;20046;-71
2021/11/11 01:57:51;;;;;;;7.55;4.35;;;;;;;0.22;98.67;96520.31;5025160;28;20045;-72
2021/11/11 02:00:26;;;;;;;11.18;5.30;;;;;;;0.18;99.48;96524.88;5026848;28;20048;-72
2021/11/11 02:03:02;;;;;;;6.20;3.83;;;;;;;0.17;99.35;96513.03;5042726;28;20052;-72
2021/11/11 02:05:49;;;;;;;8.75;4.63;;;;;;;0.12;99.68;96504.91;5043740;28;20048;-72
2021/11/11 02:08:25;;;;;;;6.40;3.63;;;;;;;0.10;99.96;96496.53;5025966;28;20049;-72
2021/11/11 02:10:54;;;;;;;6.18;4.28;;;;;;;0.15;99.70;96510.59;5025524;28;20040;-72
2021/11/11 02:13:21;;;;;;;7.63;4.32;;;;;;;0.05;100.00;96494.31;5025728;28;20071;-72
2021/11/11 02:15:48;;;;;;;7.78;3.92;;;;;;;0.15;99.99;96500.34;5026418;28;20510;-72
2021/11/11 02:18:16;;;;;;;7.40;3.80;;;;;;;0.18;99.98;96500.09;5026537;28;20080;-71
2021/11/11 02:20:44;;;;;;;7.53;4.10;;;;;;;0.09;100.00;96490.59;5025850;28;20041;-71
2021/11/11 02:23:26;;;;;;;6.80;3.65;;;;;;;0.01;100.00;96481.91;5026179;28;20499;-72
2021/11/11 02:25:59;;;;;;;6.30;3.78;;;;;;;0.08;100.00;96504.34;5042907;28;20048;-72
2021/11/11 02:28:41;;;;;;;7.90;3.75;;;;;;;0.11;100.00;96498.97;5026549;28;20513;-72
2021/11/11 02:31:08;;;;;;;10.80;5.53;;;;;;;0.14;100.00;96503.81;5025619;28;20574;-72
2021/11/11 02:33:52;;;;;;;9.02;4.57;;;;;;;0.05;100.00;96489.19;5025663;28;20052;-72
2021/11/11 02:36:23;;;;;;;7.07;4.35;;;;;;;0.08;100.00;96483.84;5024877;28;20494;-72
2021/11/11 02:38:52;;;;;;;9.25;4.43;;;;;;;0.17;100.00;96495.91;5015062;28;20414;-71
2021/11/11 02:41:20;;;;;;;9.75;4.18;;;;;;;0.10;100.00;96481.97;5025906;28;20071;-73
2021/11/11 02:43:47;;;;;;;7.20;4.35;;;;;;;0.17;100.00;96493.34;5025069;28;20067;-71
2021/11/11 02:46:18;;;;;;;12.30;5.00;;;;;;;0.21;100.00;96487.97;5025283;28;20071;-72
2021/11/11 02:48:45;;;;;;;9.00;5.25;;;;;;;0.34;100.00;96486.00;5042229;28;20045;-71
2021/11/11 02:51:12;;;;;;;9.40;4.95;;;;;;;0.42;100.00;96488.75;5025118;28;20102;-72
2021/11/11 02:53:41;;;;;;;14.45;5.43;;;;;;;0.32;100.00;96480.19;5025493;28;20094;-72
2021/11/11 02:56:08;;;;;;;7.78;5.22;;;;;;;0.38;99.86;96480.50;5024066;28;20528;-71
2021/11/11 02:58:41;;;;;;;8.60;5.07;;;;;;;0.35;99.73;96490.22;5025460;28;20041;-72
2021/11/11 03:01:09;;;;;;;7.93;5.03;;;;;;;0.20;100.00;96479.47;5026270;28;20041;-71
2021/11/11 03:03:37;;;;;;;10.18;5.18;;;;;;;0.09;100.00;96464.16;5023978;28;20048;-72
2021/11/11 03:06:07;;;;;;;7.63;4.93;;;;;;;0.23;100.00;96486.09;5026557;28;20095;-72
2021/11/11 03:08:36;;;;;;;8.65;5.00;;;;;;;0.13;100.00;96461.22;5025596;28;20128;-72
2021/11/11 03:11:05;;;;;;;6.70;4.35;;;;;;;0.21;100.00;96472.59;5025815;28;20040;-73
2021/11/11 03:14:01;;;;;;;10.18;4.60;;;;;;;0.27;100.00;96472.06;5035749;28;20042;-72
2021/11/11 03:16:28;;;;;;;7.03;3.78;;;;;;;0.18;100.00;96469.34;5026385;28;20048;-72
2021/11/11 03:18:56;;;;;;;8.25;4.38;;;;;;;0.08;100.00;96459.97;5040780;28;20147;-72
2021/11/11 03:21:23;;;;;;;6.47;3.60;;;;;;;0.11;100.00;96468.22;5024923;28;20041;-72
2021/11/11 03:23:51;;;;;;;9.27;4.22;;;;;;;0.04;100.00;96456.84;5025232;28;20056;-72
2021/11/11 03:26:22;;;;;;;6.05;3.55;;;;;;;0.02;100.00;96458.72;5007001;28;20687;-72
2021/11/11 03:28:50;;;;;;;6.10;3.78;;;;;;;-0.01;100.00;96454.66;5026132;28;20148;-72
2021/11/11 03:31:26;;;;;;;5.60;3.40;;;;;;;-0.07;100.00;96454.34;5024092;28;20573;-72
2021/11/11 03:33:56;;;;;;;8.25;4.47;;;;;;;-0.04;100.00;96456.66;5024987;28;20631;-72
2021/11/11 03:36:24;;;;;;;6.40;4.38;;;;;;;-0.02;100.00;96454.78;5024068;28;20048;-72
2021/11/11 03:38:51;;;;;;;8.90;4.68;;;;;;;-0.04;100.00;96454.09;5024152;28;20049;-72
2021/11/11 03:41:18;;;;;;;5.80;3.08;;;;;;;-0.09;100.00;96445.97;5043938;28;20115;-72
2021/11/11 03:43:45;;;;;;;5.50;3.47;;;;;;;-0.03;100.00;96451.41;5024724;28;20056;-72
2021/11/11 03:46:14;;;;;;;7.30;3.97;;;;;;;0.03;100.00;96455.22;5023981;28;20041;-73
2021/11/11 03:48:48;;;;;;;6.22;3.95;;;;;;;0.06;100.00;96449.84;5024489;28;20410;-73
2021/11/11 03:51:16;;;;;;;5.50;3.60;;;;;;;0.09;100.00;96439.34;5023531;28;20053;-72
2021/11/11 03:53:46;;;;;;;8.38;4.03;;;;;;;0.10;100.00;96435.84;5024831;28;20056;-73
2021/11/11 03:56:13;;;;;;;4.35;2.92;;;;;;;0.07;100.00;96430.97;5043131;28;20047;-73
2021/11/11 03:58:43;;;;;;;6.90;3.70;;;;;;;0.07;100.00;96425.84;5025187;28;20049;-73
2021/11/11 04:01:11;;;;;;;6.15;3.65;;;;;;;0.06;100.00;96431.91;5024139;28;20052;-73
2021/11/11 04:03:40;;;;;;;6.78;3.83;;;;;;;0.10;100.00;96419.66;5023846;28;20072;-73
2021/11/11 04:06:07;;;;;;;7.15;3.38;;;;;;;-0.02;100.00;96406.09;5041875;28;20052;-73
2021/11/11 04:08:36;;;;;;;6.85;3.67;;;;;;;0.16;100.00;96424.28;5025633;28;20497;-73
2021/11/11 04:11:05;;;;;;;5.22;3.45;;;;;;;0.05;100.00;96407.22;5028961;28;20131;-73
2021/11/11 04:13:32;;;;;;;7.82;3.90;;;;;;;0.16;100.00;96425.09;5027914;28;20075;-73
2021/11/11 04:16:00;;;;;;;5.65;3.42;;;;;;;0.12;100.00;96423.72;5026834;28;20459;-73
2021/11/11 04:18:32;;;;;;;5.20;3.47;;;;;;;0.00;100.00;96424.75;5027461;28;20056;-72
2021/11/11 04:21:00;;;;;;;6.18;4.20;;;;;;;-0.08;100.00;96396.38;5027938;28;20072;-72
2021/11/11 04:23:29;;;;;;;6.13;3.80;;;;;;;0.03;100.00;96419.34;5027926;28;20558;-72
2021/11/11 04:26:14;;;;;;;6.40;4.22;;;;;;;0.08;100.00;96422.34;5046157;28;20403;-73
2021/11/11 04:31:21;;;;;;;5.68;3.53;;;;;;;0.08;100.00;96422.34;5027300;28;20042;-73
2021/11/11 04:33:54;;;;;;;5.63;4.13;;;;;;;-0.01;100.00;96418.00;5028619;28;20045;-73
2021/11/11 04:39:20;;;;;;;7.38;3.67;;;;;;;0.01;100.00;96416.09;5028848;28;20579;-73
2021/11/11 05:03:47;;;;;;;6.22;3.88;;;;;;;0.30;100.00;96410.31;5027182;28;20041;-73
2021/11/11 05:06:16;;;;;;;5.53;3.88;;;;;;;0.36;100.00;96412.34;5028236;28;20372;-74
2021/11/11 05:08:45;;;;;;;9.15;4.18;;;;;;;0.37;100.00;96401.97;5027017;28;20049;-74
2021/11/11 05:11:13;;;;;;;10.65;5.72;;;;;;;0.44;100.00;96402.28;5027586;28;20541;-74
2021/11/11 05:13:41;;;;;;;6.05;4.03;;;;;;;0.47;100.00;96401.22;5025595;28;20418;-74
2021/11/11 05:16:12;;;;;;;8.30;4.45;;;;;;;0.49;100.00;96404.47;5027006;28;20049;-73
2021/11/11 05:18:39;;;;;;;9.85;4.93;;;;;;;0.46;100.00;96399.59;5027764;28;20430;-74
2021/11/11 05:21:08;;;;;;;7.57;4.07;;;;;;;0.37;100.00;96401.19;5027688;28;20051;-73
2021/11/11 05:23:37;;;;;;;6.82;4.38;;;;;;;0.36;100.00;96399.53;5027734;28;20060;-73
2021/11/11 05:26:04;;;;;;;9.93;4.35;;;;;;;0.33;100.00;96399.81;5027577;28;20064;-73
2021/11/11 05:28:32;;;;;;;7.55;4.50;;;;;;;0.27;100.00;96379.81;5026571;28;20517;-74
2021/11/11 05:31:05;;;;;;;7.60;4.65;;;;;;;0.28;100.00;96401.94;5027400;28;20049;-74
2021/11/11 05:33:33;;;;;;;5.82;3.35;;;;;;;0.11;100.00;96406.72;5026419;28;20509;-74
2021/11/11 05:36:00;;;;;;;7.68;4.88;;;;;;;0.10;100.00;96397.41;5027572;28;20175;-74
2021/11/11 05:38:28;;;;;;;6.60;3.97;;;;;;;0.28;100.00;96401.94;5026459;28;20076;-74
2021/11/11 05:40:55;;;;;;;10.32;6.50;;;;;;;0.35;100.00;96397.94;5026604;28;20395;-73
2021/11/11 05:43:23;;;;;;;15.73;5.38;;;;;;;0.50;100.00;96396.63;5027952;28;20174;-74
2021/11/11 05:45:50;;;;;;;7.97;4.97;;;;;;;0.60;100.00;96393.31;5026952;28;20069;-74
2021/11/11 05:48:17;;;;;;;10.32;4.10;;;;;;;0.54;100.00;96399.75;5027055;28;20053;-74
2021/11/11 05:50:44;;;;;;;7.70;4.53;;;;;;;0.46;100.00;96384.22;5027942;28;20055;-74
2021/11/11 05:53:13;;;;;;;22.67;4.57;;;;;;;0.54;100.00;96392.88;5026323;28;20045;-74
2021/11/11 05:55:41;;;;;;;7.20;4.95;;;;;;;0.70;100.00;96407.78;5025579;28;20517;-74
2021/11/11 05:58:13;;;;;;;9.93;4.55;;;;;;;0.87;100.00;96403.78;5025488;28;20045;-74
2021/11/11 06:00:40;;;;;;;10.60;4.45;;;;;;;0.93;100.00;96403.22;5023270;28;20061;-74
2021/11/11 06:03:16;;;;;;;6.50;4.35;;;;;;;0.97;100.00;96387.56;5035430;28;20045;-74
2021/11/11 06:05:47;;;;;;;7.82;5.28;;;;;;;1.15;99.44;96406.50;5026422;28;20079;-74
2021/11/11 06:08:18;;;;;;;13.90;7.28;;;;;;;1.20;99.69;96408.69;5027560;28;20110;-75
2021/11/11 06:10:45;;;;;;;16.05;8.77;;;;;;;1.26;99.61;96408.13;5026630;28;20047;-75
2021/11/11 06:13:12;;;;;;;9.82;5.47;;;;;;;1.23;99.00;96393.81;5044151;28;20036;-75
2021/11/11 06:15:39;;;;;;;14.35;7.18;;;;;;;1.25;99.16;96402.19;5044290;28;20036;-75
2021/11/11 06:18:09;;;;;;;10.48;6.80;;;;;;;1.27;99.09;96397.75;5043707;28;20048;-74
2021/11/11 06:20:43;;;;;;;13.25;7.32;;;;;;;1.23;98.62;96404.09;5043118;28;20056;-74
2021/11/11 06:23:11;;;;;;;10.82;4.75;;;;;;;1.27;99.21;96404.63;5025218;28;20041;-74
2021/11/11 06:25:40;;;;;;;7.90;3.95;;;;;;;1.33;98.16;96410.06;5024622;28;20052;-75
2021/11/11 06:28:08;;;;;;;11.70;6.40;;;;;;;1.33;98.84;96410.06;5026280;28;20426;-75
2021/11/11 06:30:36;;;;;;;6.18;3.83;;;;;;;1.39;98.69;96402.75;5026297;28;20194;-75
2021/11/11 06:33:08;;;;;;;10.85;6.18;;;;;;;1.44;99.39;96411.69;5042901;28;20049;-75
2021/11/11 06:35:35;;;;;;;16.95;9.25;;;;;;;1.53;98.41;96404.91;5025994;28;20045;-75
2021/11/11 06:38:02;;;;;;;7.10;4.68;;;;;;;1.60;98.21;96400.84;5042685;28;21849;-74
2021/11/11 06:40:31;;;;;;;5.95;4.38;;;;;;;1.81;98.12;96412.75;5043077;28;20500;-75
2021/11/11 06:43:00;;;;;;;8.02;4.20;;;;;;;1.97;97.83;96407.03;5042941;28;20037;-75
2021/11/11 06:45:33;;;;;;;11.48;6.55;;;;;;;2.09;96.24;96406.75;5042011;28;20114;-75
2021/11/11 06:48:00;;;;;;;8.17;5.70;;;;;;;2.24;95.98;96403.72;5042586;28;20041;-75
2021/11/11 06:50:27;;;;;;;10.30;5.82;;;;;;;2.41;97.01;96395.28;5041846;28;20119;-76
2021/11/11 06:52:54;;;;;;;9.65;4.75;;;;;;;2.49;95.05;96397.94;5044727;28;20441;-76
2021/11/11 06:55:21;;;;;;;9.13;3.63;;;;;;;2.59;94.68;96392.78;5044997;28;20510;-77
2021/11/11 06:57:48;;;;;;;13.00;4.75;;;;;;;2.75;95.12;96392.13;5044951;28;20157;-77
2021/11/11 07:00:17;;;;;;;13.05;6.45;;;;;;;2.71;92.54;96380.50;5028535;28;20051;-77
2021/11/11 07:02:45;;;;;;;13.93;5.90;;;;;;;2.78;91.41;96381.56;5028790;28;20041;-76
2021/11/11 07:05:15;;;;;;;12.10;6.25;;;;;;;2.81;90.38;96391.56;5027116;28;20053;-75
2021/11/11 07:07:43;;;;;;;6.50;3.88;;;;;;;2.68;90.55;96365.34;5025707;28;20047;-77
2021/11/11 07:10:10;;;;;;;6.20;3.42;;;;;;;2.95;92.17;96381.72;5042923;28;20111;-76
2021/11/11 07:12:38;;;;;;;8.23;4.20;;;;;;;3.02;90.16;96377.63;5042675;28;20029;-76
2021/11/11 07:15:07;;;;;;;63.85;30.23;;;;;;;3.00;89.25;96375.19;5043304;28;20048;-74
2021/11/11 07:17:36;;;;;;;24.33;14.63;;;;;;;2.91;89.07;96370.13;5045958;28;20041;-75
2021/11/11 07:20:06;;;;;;;5.88;3.80;;;;;;;2.99;89.43;96365.03;5045224;28;20041;-76
2021/11/11 07:22:33;;;;;;;11.73;6.72;;;;;;;3.14;90.40;96355.88;5044226;28;20532;-76
2021/11/11 07:25:00;;;;;;;23.70;12.98;;;;;;;3.13;88.89;96354.22;5039990;28;20593;-76
2021/11/11 07:27:27;;;;;;;13.15;8.60;;;;;;;3.16;87.84;96359.09;5042867;28;20048;-76
2021/11/11 07:30:00;;;;;;;11.00;5.95;;;;;;;3.32;88.65;96347.34;5044959;28;20494;-76
2021/11/11 07:32:27;;;;;;;14.30;8.00;;;;;;;3.57;89.16;96356.88;5026714;28;20049;-77
2021/11/11 07:34:54;;;;;;;6.38;4.47;;;;;;;3.72;89.06;96354.56;5026042;28;20041;-76
2021/11/11 07:37:21;;;;;;;13.90;8.95;;;;;;;3.73;88.20;96345.06;5043455;28;20041;-76
2021/11/11 07:39:50;;;;;;;6.82;4.80;;;;;;;3.88;88.51;96342.75;5045397;28;20037;-75
2021/11/11 07:42:20;;;;;;;12.85;7.45;;;;;;;4.04;87.37;96339.47;5043008;28;20106;-77
2021/11/11 07:44:53;;;;;;;10.60;5.63;;;;;;;4.15;86.31;96327.09;5025778;28;20509;-71
2021/11/11 07:51:57;;;;;;;7.15;4.72;;;;;;;4.75;85.19;96331.38;5041070;28;20191;-72
2021/11/11 07:54:43;;;;;;;6.80;4.13;;;;;;;4.97;82.20;96332.56;5025604;28;20033;-71
2021/11/11 07:57:42;;;;;;;;;;;;;;;5.20;79.71;96331.13;5043108;28;20099;-71
2021/11/11 08:00:14;;;;;;;4.85;2.13;;;;;;;5.36;75.78;96325.97;5027911;28;20446;-71
2021/11/11 08:03:09;;;;;;;2.58;2.13;;;;;;;5.59;76.08;96326.13;5026416;28;20078;-69
2021/11/11 08:06:14;;;;;;;4.82;2.53;;;;;;;5.77;73.37;96310.44;5030343;28;20048;-71
2021/11/11 08:08:41;;;;;;;4.10;1.95;;;;;;;5.71;71.50;96308.50;5046739;28;20041;-70
2021/11/11 08:11:08;;;;;;;3.10;1.80;;;;;;;5.87;72.22;96316.25;5027699;28;20033;-71
2021/11/11 08:13:35;;;;;;;3.17;2.08;;;;;;;5.74;69.13;96292.66;5046571;28;20037;-71
2021/11/11 08:16:02;;;;;;;4.85;1.92;;;;;;;5.93;68.92;96315.56;5045269;28;20533;-71
2021/11/11 08:18:29;;;;;;;3.35;2.38;;;;;;;6.14;68.73;96306.50;5044238;28;20057;-71
2021/11/11 08:20:55;;;;;;;3.95;1.92;;;;;;;5.95;64.30;96297.31;5044219;28;20052;-72
2021/11/11 08:23:22;;;;;;;3.83;2.38;;;;;;;5.75;65.35;96302.03;5044693;28;20054;-71
2021/11/11 08:25:50;;;;;;;3.10;1.80;;;;;;;5.79;65.29;96303.31;5045584;28;20041;-72
2021/11/11 08:28:21;;;;;;;28.75;12.57;;;;;;;5.94;66.39;96296.50;5045383;28;20060;-71
2021/11/11 08:30:49;;;;;;;2.97;2.33;;;;;;;6.10;65.86;96289.69;5043279;28;20045;-72
2021/11/11 08:33:16;;;;;;;4.47;2.40;;;;;;;6.06;67.00;96288.41;5044467;28;20478;-72
2021/11/11 08:35:47;;;;;;;9.27;4.68;;;;;;;6.21;64.42;96286.75;5045053;28;20694;-72
2021/11/11 08:38:13;;;;;;;5.97;2.83;;;;;;;6.36;65.55;96278.28;5026297;28;20103;-73
2021/11/11 08:40:41;;;;;;;5.00;3.47;;;;;;;6.36;67.30;96267.94;5045086;28;20045;-72
2021/11/11 08:43:08;;;;;;;4.30;2.63;;;;;;;6.46;65.45;96279.69;5044970;28;20044;-72
2021/11/11 08:45:38;;;;;;;3.58;2.00;;;;;;;6.58;64.10;96282.69;5026490;28;20407;-72
2021/11/11 08:48:06;;;;;;;3.80;1.67;;;;;;;6.77;64.49;96280.66;5027011;28;20163;-71
2021/11/11 08:50:36;;;;;;;7.65;2.45;;;;;;;6.84;61.59;96285.00;5045620;28;20816;-69
2021/11/11 08:53:06;;;;;;;6.07;3.63;;;;;;;7.03;63.23;96273.34;5026643;28;20073;-70
2021/11/11 08:55:34;;;;;;;4.78;1.77;;;;;;;7.16;62.16;96271.97;5025750;28;20056;-70
2021/11/11 08:58:09;;;;;;;3.67;2.30;;;;;;;7.32;62.75;96274.44;5044326;28;20043;-69
2021/11/11 09:00:44;;;;;;;9.70;5.75;;;;;;;7.38;61.08;96273.75;5045010;28;20037;-71
2021/11/11 09:03:15;;;;;;;4.82;2.60;;;;;;;7.34;60.99;96264.69;5045228;28;20389;-71
2021/11/11 09:05:42;;;;;;;3.38;1.80;;;;;;;7.26;58.52;96262.19;5043294;28;20059;-71
2021/11/11 09:08:09;;;;;;;11.13;4.15;;;;;;;7.45;60.69;96256.50;5044442;28;20506;-71
2021/11/11 09:10:40;;;;;;;42.30;24.70;;;;;;;7.72;60.54;96264.66;5045243;28;20044;-72
2021/11/11 09:13:27;;;;;;;7.15;4.20;;;;;;;7.95;55.32;96248.22;5044126;28;20043;-72
2021/11/11 09:15:54;;;;;;;5.43;3.00;;;;;;;8.21;54.98;96253.78;5045086;28;20490;-72
2021/11/11 09:18:21;;;;;;;10.40;4.38;;;;;;;8.37;53.50;96231.16;5044715;28;20533;-72
2021/11/11 09:21:04;;;;;;;12.80;5.85;;;;;;;8.49;54.51;96234.94;5043460;28;20053;-72
2021/11/11 09:23:31;;;;;;;6.60;3.33;;;;;;;8.92;52.44;96229.78;5042510;28;20043;-71
2021/11/11 09:26:00;;;;;;;4.68;2.85;;;;;;;8.99;52.47;96225.44;5043307;28;20040;-72
2021/11/11 09:28:27;;;;;;;5.82;2.90;;;;;;;9.24;50.08;96224.25;5042005;28;20045;-72
2021/11/11 09:30:55;;;;;;;4.47;2.17;;;;;;;9.34;51.87;96227.31;5042972;28;20045;-72
2021/11/11 09:33:23;;;;;;;4.75;2.28;;;;;;;9.10;51.48;96226.75;5043393;28;20107;-73
2021/11/11 09:35:53;;;;;;;3.15;1.77;;;;;;;9.69;50.95;96220.38;5043845;28;20095;-73
2021/11/11 09:38:21;;;;;;;2.22;1.60;;;;;;;9.46;50.11;96227.63;5043520;28;20502;-73
2021/11/11 09:40:48;;;;;;;2.55;1.60;;;;;;;9.13;51.85;96210.00;5043422;28;20048;-73
2021/11/11 09:43:33;;;;;;;3.17;1.80;;;;;;;9.60;52.01;96211.13;5043813;28;20167;-73
2021/11/11 09:46:00;;;;;;;3.72;2.10;;;;;;;9.63;50.82;96189.91;5044446;28;20041;-72
2021/11/11 09:48:28;;;;;;;2.60;1.80;;;;;;;9.92;51.48;96195.88;5044267;28;20059;-72
2021/11/11 09:50:55;;;;;;;3.63;2.33;;;;;;;9.98;50.26;96191.72;5043511;28;20044;-73
2021/11/11 09:53:24;;;;;;;3.78;1.92;;;;;;;10.42;47.17;96182.69;5045147;28;20099;-72
2021/11/11 09:58:46;;;;;;;4.47;2.05;;;;;;;11.20;46.00;96190.81;5026395;28;20114;-72
2021/11/11 10:01:19;;;;;;;10.68;2.15;;;;;;;11.76;44.06;96173.06;5044852;28;20120;-73
2021/11/11 10:03:48;;;;;;;3.60;1.88;;;;;;;12.05;43.85;96180.41;5039304;28;20094;-73
2021/11/11 10:06:21;;;;;;;5.63;1.73;;;;;;;11.47;44.22;96178.53;5043100;28;20052;-73
2021/11/11 10:08:54;;;;;;;4.22;1.65;;;;;;;11.25;46.09;96177.97;5043648;28;20517;-73
2021/11/11 10:11:32;;;;;;;3.33;1.75;;;;;;;11.19;44.24;96163.13;5043552;28;20056;-73
2021/11/11 10:14:07;;;;;;;3.20;1.95;;;;;;;11.73;43.23;96163.03;5043826;28;20040;-73
2021/11/11 10:16:40;;;;;;;4.65;2.35;;;;;;;11.52;43.47;96162.25;5043341;28;20049;-73
2021/11/11 10:19:07;;;;;;;7.20;3.83;;;;;;;11.43;43.82;96159.09;5043921;28;20052;-72
2021/11/11 10:21:51;;;;;;;10.05;5.88;;;;;;;12.26;43.17;96152.41;5043336;28;20048;-73
2021/11/11 10:24:29;;;;;;;3.38;2.13;;;;;;;12.82;42.65;96145.66;5043580;28;20040;-72
2021/11/11 10:27:01;;;;;;;33.67;6.78;;;;;;;13.34;41.47;96143.63;5043265;28;20041;-73
2021/11/11 10:29:50;;;;;;;14.73;4.72;;;;;;;13.46;41.26;96135.84;5041495;28;20037;-73
2021/11/11 10:32:19;;;;;;;6.05;2.80;;;;;;;13.99;39.83;96128.44;5041778;28;20053;-73
2021/11/11 10:34:52;;;;;;;13.00;6.00;;;;;;;14.13;37.64;96135.09;5042591;28;20029;-72
2021/11/11 10:37:22;;;;;;;4.47;2.43;;;;;;;14.23;38.01;96124.91;5042847;28;20051;-72
2021/11/11 10:40:15;;;;;;;21.55;4.93;;;;;;;14.19;38.68;96126.38;5043037;28;20047;-73
2021/11/11 10:42:46;;;;;;;3.45;1.50;;;;;;;12.92;40.04;96126.84;5042071;28;20060;-73
2021/11/11 10:45:21;;;;;;;4.63;2.33;;;;;;;13.52;39.69;96116.69;5039713;28;20037;-73
2021/11/11 10:47:52;;;;;;;3.42;1.40;;;;;;;13.57;38.02;96101.09;5041533;28;20431;-72
2021/11/11 10:50:25;;;;;;;3.80;1.95;;;;;;;13.97;38.10;96112.94;5041678;28;20071;-70
2021/11/11 10:52:54;;;;;;;15.43;4.45;;;;;;;14.13;37.62;96109.72;5042206;28;20045;-72
2021/11/11 10:55:29;;;;;;;41.83;13.50;;;;;;;14.09;37.51;96111.16;5040487;28;20624;-72
2021/11/11 10:57:55;;;;;;;;;;;;;;;14.05;37.46;96104.00;5041864;28;20617;-69
2021/11/11 11:00:32;;;;;;;3.83;2.78;;;;;;;14.03;37.66;96095.56;5041783;28;19921;-72
2021/11/11 11:03:02;;;;;;;4.85;1.92;;;;;;;14.03;37.43;96071.97;5022711;28;20041;-72
2021/11/11 11:05:38;;;;;;;7.00;2.83;;;;;;;14.44;36.56;96099.22;5039317;28;20060;-72
2021/11/11 11:08:11;;;;;;;3.80;1.85;;;;;;;14.82;35.58;96093.63;5040395;28;20052;-72
2021/11/11 11:10:44;;;;;;;10.48;3.00;;;;;;;15.27;34.59;96082.56;5040971;28;20056;-72
2021/11/11 11:13:22;;;;;;;4.35;2.28;;;;;;;15.41;35.10;96077.91;5040731;28;20056;-73
2021/11/11 11:15:53;;;;;;;6.07;2.40;;;;;;;15.52;34.76;96078.09;5039395;28;20045;-72
2021/11/11 11:18:24;;;;;;;4.40;2.55;;;;;;;15.24;35.31;96071.75;5042410;28;20102;-72
2021/11/11 11:20:56;;;;;;;3.92;2.10;;;;;;;15.39;34.71;96074.66;5044524;28;20044;-70
2021/11/11 11:23:29;;;;;;;2.53;1.73;;;;;;;15.44;34.95;96077.41;5044446;28;20049;-70
2021/11/11 11:26:07;;;;;;;6.93;2.28;;;;;;;14.64;37.05;96076.16;5046234;28;20044;-70
2021/11/11 11:28:43;;;;;;;3.60;2.42;;;;;;;13.71;36.77;96065.09;5044213;28;20037;-70
2021/11/11 11:31:10;;;;;;;4.40;2.28;;;;;;;13.67;37.85;96063.16;5044597;28;20053;-69
2021/11/11 11:33:43;;;;;;;6.35;3.40;;;;;;;14.05;36.12;96064.69;5046028;28;20166;-70
2021/11/11 11:36:14;;;;;;;12.55;4.45;;;;;;;14.30;35.57;96061.94;5026542;28;20457;-70
2021/11/11 11:38:51;;;;;;;6.38;3.00;;;;;;;14.07;36.59;96057.41;5044964;28;20045;-70
2021/11/11 11:41:24;;;;;;;12.10;5.72;;;;;;;14.29;36.10;96050.63;5025917;28;20522;-70
2021/11/11 11:43:52;;;;;;;14.57;4.65;;;;;;;14.58;35.97;96048.22;5045073;28;20560;-70
2021/11/11 11:46:24;;;;;;;11.82;4.43;;;;;;;14.52;35.94;96043.84;5045301;28;21523;-71
2021/11/11 11:48:52;;;;;;;21.63;8.38;;;;;;;14.92;35.88;96043.22;5046656;28;20124;-70
2021/11/11 11:51:22;;;;;;;23.10;6.68;;;;;;;14.94;35.83;96041.16;5045488;28;20045;-71
2021/11/11 11:54:07;;;;;;;11.07;4.55;;;;;;;15.32;34.74;96037.25;5044389;28;20040;-70
2021/11/11 11:56:57;;;;;;;9.63;3.42;;;;;;;15.56;34.42;96034.59;5025736;28;20049;-70
2021/11/11 11:59:28;;;;;;;2.88;2.05;;;;;;;16.01;32.96;96026.03;5044473;28;20060;-69
2021/11/11 12:09:43;;;;;;;4.63;2.83;;;;;;;16.00;33.70;96012.06;5026596;28;20057;-69
2021/11/11 12:15:24;;;;;;;7.10;2.47;;;;;;;16.74;30.48;96020.88;5042359;28;20044;-69
2021/11/11 12:18:24;;;;;;;5.05;2.70;;;;;;;17.17;29.78;96008.88;5041880;28;20068;-69
2021/11/11 12:41:17;;;;;;;3.97;1.48;;;;;;;16.72;31.39;95980.88;5041422;28;20049;-69
2021/11/11 12:44:04;;;;;;;4.63;1.92;;;;;;;16.95;30.62;95972.81;5043581;28;20498;-69
2021/11/11 12:46:46;;;;;;;2.47;1.48;;;;;;;16.92;29.42;95968.00;5044054;28;20045;-69
2021/11/11 12:49:26;;;;;;;2.47;1.50;;;;;;;16.64;30.90;95961.03;5043445;28;20045;-69
2021/11/11 12:52:14;;;;;;;2.35;1.33;;;;;;;16.08;30.68;95966.22;5042330;28;20571;-69
2021/11/11 12:54:44;;;;;;;8.13;2.55;;;;;;;16.09;30.87;95962.56;5026579;28;20528;-68
2021/11/11 12:57:12;;;;;;;6.72;3.75;;;;;;;16.59;32.29;95956.50;5042229;28;20179;-68
2021/11/11 12:59:40;;;;;;;2.13;1.23;;;;;;;15.42;31.55;95953.47;5042255;28;20418;-69